Time;durP1;ratioP1;P1;durP2;ratioP2;P2;SDS_P1;SDS_P2;PMS_P1;PMS_P2;Temp;Humidity;BMP_temperature;BMP_pressure;BME280_temperature;BME280_humidity;BME280_pressure;Samples;Min_cycle;Max_cycle;Signal;HPM_P1;HPM_P2
2024/01/09 00:00:16;;;;;;;8.52;2.90;;;-1.80;99.90;;;;;;5128522;27;20048;-79
2024/01/09 00:02:41;;;;;;;9.43;3.47;;;-1.70;99.90;;;;;;5127459;27;20096;-80
2024/01/09 00:05:08;;;;;;;7.63;2.92;;;-1.80;99.90;;;;;;5150347;27;20535;-80
2024/01/09 00:07:33;;;;;;;8.40;3.38;;;-1.80;99.90;;;;;;5133017;27;20156;-80
2024/01/09 00:09:59;;;;;;;5.40;2.33;;;-1.70;99.90;;;;;;5096964;27;20060;-80
2024/01/09 00:12:25;;;;;;;8.15;3.33;;;-1.80;99.90;;;;;;5112287;27;20044;-80
2024/01/09 00:14:50;;;;;;;6.93;2.53;;;-1.80;99.90;;;;;;5098749;28;20410;-80
2024/01/09 00:17:16;;;;;;;8.43;2.92;;;-1.80;99.90;;;;;;5098920;28;20043;-80
2024/01/09 00:19:42;;;;;;;11.00;3.17;;;-1.80;99.90;;;;;;5098210;28;20502;-80
2024/01/09 00:22:07;;;;;;;6.20;2.22;;;-1.90;99.90;;;;;;5131201;27;20134;-80
2024/01/09 00:24:33;;;;;;;6.22;2.50;;;-1.90;99.90;;;;;;5097057;28;20483;-80
2024/01/09 00:26:59;;;;;;;7.20;2.85;;;-1.90;99.90;;;;;;5098701;28;20044;-80
2024/01/09 00:29:24;;;;;;;8.15;3.05;;;-1.90;99.90;;;;;;5114013;28;20040;-80
2024/01/09 00:31:50;;;;;;;7.05;2.80;;;-1.90;99.90;;;;;;5130963;27;20121;-80
2024/01/09 00:34:16;;;;;;;6.85;2.80;;;-1.90;99.90;;;;;;5096014;28;20035;-80
2024/01/09 00:36:44;;;;;;;7.68;3.20;;;-1.90;99.90;;;;;;5115233;28;20381;-80
2024/01/09 00:39:11;;;;;;;7.63;3.20;;;-2.00;99.90;;;;;;5114764;28;20400;-80
2024/01/09 00:41:37;;;;;;;7.13;2.60;;;-1.90;99.90;;;;;;5114035;28;20043;-80
2024/01/09 00:44:02;;;;;;;6.63;2.85;;;-1.90;99.90;;;;;;5129469;27;20036;-80
2024/01/09 00:46:28;;;;;;;7.82;2.28;;;-1.90;99.90;;;;;;5114256;27;20035;-80
2024/01/09 00:48:54;;;;;;;7.75;2.80;;;-1.90;99.90;;;;;;5114343;28;20035;-80
2024/01/09 00:51:20;;;;;;;8.23;2.90;;;-1.90;99.90;;;;;;5131512;27;20402;-80
2024/01/09 00:53:46;;;;;;;7.68;2.97;;;-1.90;99.90;;;;;;5112034;27;20050;-80
2024/01/09 00:56:11;;;;;;;7.55;2.97;;;-1.90;99.90;;;;;;5110631;27;20047;-80
2024/01/09 00:58:37;;;;;;;7.90;3.28;;;-2.00;99.90;;;;;;5147495;27;20063;-80
2024/01/09 01:01:03;;;;;;;6.93;3.10;;;-2.00;99.90;;;;;;5097036;28;20385;-80
2024/01/09 01:03:29;;;;;;;7.78;2.75;;;-2.10;99.90;;;;;;5130245;27;20433;-80
2024/01/09 01:05:55;;;;;;;6.55;3.17;;;-2.10;99.90;;;;;;5096112;28;20032;-80
2024/01/09 01:08:21;;;;;;;6.47;2.80;;;-2.10;99.90;;;;;;5113457;28;20376;-80
2024/01/09 01:10:48;;;;;;;5.38;2.33;;;-2.00;99.90;;;;;;5113832;28;20555;-80
2024/01/09 01:13:13;;;;;;;8.48;4.53;;;-2.00;99.90;;;;;;5097633;28;20509;-80
2024/01/09 01:15:39;;;;;;;6.90;2.83;;;-2.00;99.90;;;;;;5129834;27;20057;-80
2024/01/09 01:18:05;;;;;;;6.93;2.78;;;-2.10;99.90;;;;;;5095905;28;20043;-80
2024/01/09 01:20:30;;;;;;;5.95;2.90;;;-2.10;99.90;;;;;;5097328;28;20036;-80
2024/01/09 01:22:56;;;;;;;6.95;2.78;;;-2.20;99.90;;;;;;5097411;28;20088;-80
2024/01/09 01:25:22;;;;;;;7.53;3.33;;;-2.10;99.90;;;;;;5094778;28;20043;-80
2024/01/09 01:27:47;;;;;;;6.68;2.80;;;-2.20;99.90;;;;;;5095465;28;20035;-80
2024/01/09 01:30:13;;;;;;;6.80;3.17;;;-2.20;99.90;;;;;;5114258;28;20505;-80
2024/01/09 01:32:39;;;;;;;5.35;2.80;;;-2.20;99.90;;;;;;5113449;28;20042;-80
2024/01/09 01:35:05;;;;;;;8.98;3.30;;;-2.30;99.90;;;;;;5130562;27;20071;-80
2024/01/09 01:37:31;;;;;;;6.40;2.28;;;-2.20;99.90;;;;;;5112279;27;20046;-80
2024/01/09 01:39:56;;;;;;;8.07;2.90;;;-2.20;99.90;;;;;;5114088;28;20035;-80
2024/01/09 01:42:22;;;;;;;8.90;3.38;;;-2.20;99.90;;;;;;5096874;28;20450;-80
2024/01/09 01:44:48;;;;;;;6.53;2.75;;;-2.20;99.90;;;;;;5095937;28;20097;-81
2024/01/09 01:47:15;;;;;;;6.85;3.08;;;-2.30;99.90;;;;;;5087554;28;20480;-80
2024/01/09 01:49:41;;;;;;;6.25;2.95;;;-2.20;99.90;;;;;;5114021;28;20069;-80
2024/01/09 01:52:09;;;;;;;9.88;3.13;;;-2.20;99.90;;;;;;5096891;28;20046;-81
2024/01/09 01:54:37;;;;;;;8.20;3.22;;;-2.30;99.90;;;;;;5113100;27;20560;-81
2024/01/09 01:57:04;;;;;;;8.38;3.15;;;-2.30;99.90;;;;;;5146680;27;20400;-80
2024/01/09 01:59:32;;;;;;;6.82;3.00;;;-2.30;99.90;;;;;;5146439;27;20052;-80
2024/01/09 02:01:59;;;;;;;9.63;3.28;;;-2.30;99.90;;;;;;5113588;28;20164;-81
2024/01/09 02:04:25;;;;;;;6.90;2.80;;;-2.30;99.90;;;;;;5113120;27;20043;-80
2024/01/09 02:06:51;;;;;;;8.63;3.50;;;-2.30;99.90;;;;;;5108699;28;20118;-80
2024/01/09 02:09:18;;;;;;;6.78;2.90;;;-2.30;99.90;;;;;;5109097;28;20198;-80
2024/01/09 02:11:46;;;;;;;6.75;2.80;;;-2.40;99.90;;;;;;5113394;28;20092;-80
2024/01/09 02:14:12;;;;;;;8.73;3.25;;;-2.40;99.90;;;;;;5112815;28;20048;-80
2024/01/09 02:16:38;;;;;;;8.05;3.40;;;-2.40;99.90;;;;;;5147108;27;20044;-80
2024/01/09 02:19:03;;;;;;;7.00;2.67;;;-2.40;99.90;;;;;;5128234;27;20074;-80
2024/01/09 02:21:29;;;;;;;6.82;2.80;;;-2.40;99.90;;;;;;5129420;27;20035;-81
2024/01/09 02:23:54;;;;;;;8.73;2.90;;;-2.40;99.90;;;;;;5147631;27;20385;-80
2024/01/09 02:26:22;;;;;;;8.52;2.85;;;-2.50;99.90;;;;;;5097420;27;20023;-80
2024/01/09 02:28:56;;;;;;;7.72;3.20;;;-2.60;99.90;;;;;;5111388;28;20035;-81
2024/01/09 02:31:22;;;;;;;9.55;3.72;;;-2.60;99.90;;;;;;5087711;28;20395;-80
2024/01/09 02:33:47;;;;;;;8.07;3.65;;;-2.60;99.90;;;;;;5084879;28;20479;-80
2024/01/09 02:36:13;;;;;;;8.05;2.90;;;-2.60;99.90;;;;;;5113257;27;20128;-81
2024/01/09 02:38:39;;;;;;;7.70;3.30;;;-2.70;99.90;;;;;;5137927;27;20264;-80
2024/01/09 02:41:05;;;;;;;6.40;2.78;;;-2.60;99.90;;;;;;5104434;27;20027;-80
2024/01/09 02:43:31;;;;;;;5.88;2.67;;;-2.50;99.90;;;;;;5085766;28;20537;-80
2024/01/09 02:45:56;;;;;;;6.57;2.65;;;-2.60;99.90;;;;;;5134312;27;20031;-80
2024/01/09 02:48:22;;;;;;;9.55;2.92;;;-2.60;99.90;;;;;;5111962;27;20488;-80
2024/01/09 02:50:48;;;;;;;7.78;2.60;;;-2.60;99.90;;;;;;5073307;28;20088;-80
2024/01/09 02:53:13;;;;;;;8.98;2.72;;;-2.60;99.90;;;;;;5111344;27;20126;-80
2024/01/09 02:55:39;;;;;;;6.45;2.78;;;-2.60;99.90;;;;;;5105372;27;20076;-80
2024/01/09 02:58:04;;;;;;;6.60;2.83;;;-2.50;99.90;;;;;;5110273;27;20058;-80
2024/01/09 03:00:30;;;;;;;7.40;2.88;;;-2.60;99.90;;;;;;5073570;27;20047;-80
2024/01/09 03:02:57;;;;;;;6.50;2.60;;;-2.70;99.90;;;;;;5091858;28;20072;-81
2024/01/09 03:05:22;;;;;;;8.95;2.95;;;-2.60;99.90;;;;;;5107678;27;20172;-81
2024/01/09 03:07:48;;;;;;;9.82;2.88;;;-2.50;99.90;;;;;;5073252;28;20164;-81
2024/01/09 03:10:14;;;;;;;8.00;2.80;;;-2.50;99.90;;;;;;5109372;27;20088;-81
2024/01/09 03:12:39;;;;;;;6.82;2.63;;;-2.60;99.90;;;;;;5090182;28;20043;-81
2024/01/09 03:15:06;;;;;;;6.18;2.30;;;-2.60;99.90;;;;;;5112943;27;20074;-81
2024/01/09 03:17:31;;;;;;;9.23;3.10;;;-2.80;99.90;;;;;;5123396;27;20048;-81
2024/01/09 03:19:57;;;;;;;6.85;2.65;;;-2.80;99.90;;;;;;5108983;27;20163;-81
2024/01/09 03:22:23;;;;;;;4.70;2.03;;;-2.80;99.90;;;;;;5122652;27;20098;-81
2024/01/09 03:24:48;;;;;;;7.22;2.67;;;-2.70;99.90;;;;;;5105618;28;20255;-81
2024/01/09 03:27:14;;;;;;;5.78;2.25;;;-2.70;99.90;;;;;;5130620;27;20495;-81
2024/01/09 03:29:40;;;;;;;6.50;2.58;;;-2.70;99.90;;;;;;5076200;28;20035;-80
2024/01/09 03:32:06;;;;;;;7.45;2.33;;;-2.60;99.90;;;;;;5089488;28;20039;-81
2024/01/09 03:34:31;;;;;;;7.20;2.75;;;-2.60;99.90;;;;;;5095842;28;20043;-81
2024/01/09 03:36:57;;;;;;;8.35;2.60;;;-2.70;99.90;;;;;;5110675;27;20047;-81
2024/01/09 03:39:23;;;;;;;7.32;2.60;;;-2.70;99.90;;;;;;5126368;27;20039;-80
2024/01/09 03:41:49;;;;;;;6.85;2.70;;;-2.90;99.90;;;;;;5136604;27;20037;-81
2024/01/09 03:44:14;;;;;;;7.40;2.70;;;-2.90;99.90;;;;;;5143941;27;20404;-81
2024/01/09 03:46:40;;;;;;;7.78;2.72;;;-3.00;99.90;;;;;;5111158;27;20023;-81
2024/01/09 03:49:06;;;;;;;8.18;2.80;;;-3.00;99.90;;;;;;5118917;27;20038;-81
2024/01/09 03:51:31;;;;;;;8.00;2.85;;;-2.90;99.90;;;;;;5121979;27;20046;-81
2024/01/09 03:53:57;;;;;;;5.45;2.30;;;-2.90;99.90;;;;;;5086042;27;20507;-81
2024/01/09 03:56:26;;;;;;;7.75;2.53;;;-3.00;99.90;;;;;;5080141;27;20039;-81
2024/01/09 03:58:52;;;;;;;8.80;3.05;;;-2.90;99.90;;;;;;5091823;27;20059;-82
2024/01/09 04:01:18;;;;;;;3.90;1.35;;;-2.90;99.90;;;;;;5092231;27;20039;-81
2024/01/09 04:03:43;;;;;;;4.55;1.73;;;-3.00;99.90;;;;;;5106726;27;20032;-81
2024/01/09 04:06:09;;;;;;;6.80;3.10;;;-2.90;99.90;;;;;;5085489;27;20677;-82
2024/01/09 04:08:35;;;;;;;7.47;2.95;;;-2.90;99.90;;;;;;5091746;27;20039;-81
2024/01/09 04:11:03;;;;;;;6.65;2.40;;;-3.00;99.90;;;;;;5076718;27;20126;-81
2024/01/09 04:13:29;;;;;;;7.20;2.65;;;-2.90;99.90;;;;;;5107028;27;20039;-81
2024/01/09 04:15:54;;;;;;;6.90;2.78;;;-3.00;99.90;;;;;;5107087;27;20047;-81
2024/01/09 04:18:20;;;;;;;7.28;2.55;;;-3.00;99.90;;;;;;5111546;27;20399;-82
2024/01/09 04:20:46;;;;;;;6.50;2.35;;;-3.00;99.90;;;;;;5107027;27;20132;-81
2024/01/09 04:23:11;;;;;;;7.13;2.72;;;-2.90;99.90;;;;;;5133892;27;20047;-82
2024/01/09 04:25:37;;;;;;;7.53;3.08;;;-2.90;99.90;;;;;;5092114;27;20067;-81
2024/01/09 04:28:03;;;;;;;8.23;3.20;;;-3.00;99.90;;;;;;5132575;27;20453;-81
2024/01/09 04:30:29;;;;;;;5.80;2.80;;;-3.00;99.90;;;;;;5106930;27;20142;-81
2024/01/09 04:32:54;;;;;;;7.55;2.88;;;-3.10;99.90;;;;;;5111111;27;20031;-81
2024/01/09 04:35:20;;;;;;;7.97;4.07;;;-3.10;99.90;;;;;;5120799;27;20039;-81
2024/01/09 04:37:46;;;;;;;7.15;3.03;;;-3.20;99.90;;;;;;5091360;27;20050;-81
2024/01/09 04:40:11;;;;;;;5.95;3.10;;;-3.10;99.90;;;;;;5114430;27;20040;-82
2024/01/09 04:42:37;;;;;;;8.38;2.90;;;-3.20;99.90;;;;;;5090473;27;20039;-81
2024/01/09 04:45:03;;;;;;;9.98;3.00;;;-3.10;99.90;;;;;;5073762;27;20039;-82
2024/01/09 04:47:29;;;;;;;6.40;2.65;;;-3.10;99.90;;;;;;5109303;27;20475;-82
2024/01/09 04:49:54;;;;;;;6.00;2.25;;;-3.10;99.90;;;;;;5111070;27;20040;-82
2024/01/09 04:52:20;;;;;;;5.53;2.40;;;-3.10;99.90;;;;;;5122906;27;20070;-82
2024/01/09 04:54:46;;;;;;;6.93;2.60;;;-3.10;99.90;;;;;;5090316;27;20450;-81
2024/01/09 04:57:12;;;;;;;6.10;2.55;;;-3.20;99.90;;;;;;5094534;27;20057;-82
2024/01/09 04:59:39;;;;;;;7.38;2.97;;;-3.10;99.90;;;;;;5114100;27;20063;-82
2024/01/09 05:02:05;;;;;;;8.75;2.97;;;-3.20;99.90;;;;;;5123154;27;20031;-82
2024/01/09 05:04:31;;;;;;;7.68;3.00;;;-3.20;99.90;;;;;;5110538;27;20479;-82
2024/01/09 05:06:57;;;;;;;6.55;2.80;;;-3.20;99.90;;;;;;5106714;27;20040;-82
2024/01/09 05:09:23;;;;;;;5.53;2.70;;;-3.20;99.90;;;;;;5123391;27;20411;-82
2024/01/09 05:11:49;;;;;;;7.50;3.05;;;-3.20;99.90;;;;;;5073754;27;20043;-82
2024/01/09 05:14:15;;;;;;;7.28;2.97;;;-3.20;99.90;;;;;;5127705;27;20059;-82
2024/01/09 05:16:40;;;;;;;8.93;2.97;;;-3.20;99.90;;;;;;5092282;27;20165;-82
2024/01/09 05:19:06;;;;;;;2.63;1.50;;;-3.20;99.90;;;;;;5073621;28;20070;-82
2024/01/09 05:21:32;;;;;;;9.43;3.00;;;-3.20;99.90;;;;;;5123227;27;20043;-82
2024/01/09 05:23:57;;;;;;;7.15;2.83;;;-3.40;99.90;;;;;;5090509;28;20047;-82
2024/01/09 05:26:23;;;;;;;6.93;3.28;;;-3.40;99.90;;;;;;5093666;28;20050;-82
2024/01/09 05:28:48;;;;;;;6.25;2.80;;;-3.40;99.90;;;;;;5108172;27;20933;-82
2024/01/09 05:31:14;;;;;;;7.93;2.90;;;-3.40;99.90;;;;;;5091715;27;20039;-82
2024/01/09 05:33:40;;;;;;;7.03;2.80;;;-3.40;99.90;;;;;;5105507;27;20039;-82
2024/01/09 05:36:06;;;;;;;8.27;2.72;;;-3.30;99.90;;;;;;5079082;27;20043;-82
2024/01/09 05:38:32;;;;;;;7.20;3.22;;;-3.30;99.90;;;;;;5103372;27;20118;-82
2024/01/09 05:40:58;;;;;;;6.53;2.90;;;-3.40;99.90;;;;;;5089849;27;20055;-82
2024/01/09 05:43:23;;;;;;;8.43;2.65;;;-3.50;99.90;;;;;;5105421;27;20481;-82
2024/01/09 05:45:49;;;;;;;3.30;1.73;;;-3.50;99.90;;;;;;5105583;27;20039;-83
2024/01/09 05:48:15;;;;;;;7.57;3.40;;;-3.30;99.90;;;;;;5096965;28;20036;-83
2024/01/09 05:50:40;;;;;;;7.13;3.10;;;-3.40;99.90;;;;;;5112952;28;20038;-82
2024/01/09 05:53:07;;;;;;;8.68;3.67;;;-3.50;99.90;;;;;;5091306;28;20035;-83
2024/01/09 05:55:33;;;;;;;6.97;2.95;;;-3.40;99.90;;;;;;5130749;27;20093;-83
2024/01/09 05:57:58;;;;;;;7.68;3.70;;;-3.50;99.90;;;;;;5098015;27;20023;-83
2024/01/09 06:00:24;;;;;;;5.57;2.22;;;-3.50;99.90;;;;;;5100031;28;20039;-83
2024/01/09 06:02:51;;;;;;;7.68;3.40;;;-3.60;99.90;;;;;;5130534;27;20449;-83
2024/01/09 06:05:17;;;;;;;6.45;2.90;;;-3.60;99.90;;;;;;5147787;27;20476;-83
2024/01/09 06:07:42;;;;;;;8.98;3.42;;;-3.60;99.90;;;;;;5111812;27;20053;-83
2024/01/09 06:10:08;;;;;;;7.65;3.35;;;-3.70;99.90;;;;;;5113377;28;20126;-83
2024/01/09 06:12:34;;;;;;;9.27;3.15;;;-3.70;99.90;;;;;;5130477;27;20144;-83
2024/01/09 06:15:00;;;;;;;5.40;2.35;;;-3.70;99.90;;;;;;5113647;28;20051;-83
2024/01/09 06:17:25;;;;;;;7.13;2.83;;;-3.70;99.90;;;;;;5128809;27;20063;-83
2024/01/09 06:19:51;;;;;;;6.60;2.80;;;-3.60;99.90;;;;;;5129373;27;20035;-83
2024/01/09 06:22:17;;;;;;;3.85;1.55;;;-3.60;99.90;;;;;;5096185;28;20118;-83
2024/01/09 06:24:43;;;;;;;7.72;2.58;;;-3.60;99.90;;;;;;5094574;28;20030;-83
2024/01/09 06:27:08;;;;;;;7.45;3.13;;;-3.60;99.90;;;;;;5144326;27;20054;-83
2024/01/09 06:29:34;;;;;;;7.97;3.25;;;-3.60;99.90;;;;;;5096093;28;20415;-83
2024/01/09 06:31:59;;;;;;;7.75;3.17;;;-3.70;99.90;;;;;;5112906;28;20415;-83
2024/01/09 06:34:25;;;;;;;4.95;2.25;;;-3.70;99.90;;;;;;5095849;28;20127;-83
2024/01/09 06:36:51;;;;;;;8.00;3.17;;;-3.60;99.90;;;;;;5113164;28;20144;-83
2024/01/09 06:39:16;;;;;;;8.93;3.40;;;-3.60;99.90;;;;;;5128225;27;20589;-83
2024/01/09 06:41:43;;;;;;;7.80;3.10;;;-3.70;99.90;;;;;;5112020;28;20040;-83
2024/01/09 06:44:08;;;;;;;4.57;2.05;;;-3.80;99.90;;;;;;5130015;27;20035;-83
2024/01/09 06:46:34;;;;;;;4.30;2.30;;;-3.70;99.90;;;;;;5112664;28;20406;-83
2024/01/09 06:49:00;;;;;;;9.15;3.47;;;-3.50;99.90;;;;;;5111835;27;20035;-83
2024/01/09 06:51:25;;;;;;;6.68;2.80;;;-3.60;99.90;;;;;;5095867;28;20035;-83
2024/01/09 06:53:51;;;;;;;8.43;3.67;;;-3.60;99.90;;;;;;5122330;27;20027;-83
2024/01/09 06:56:17;;;;;;;8.57;3.55;;;-3.50;99.90;;;;;;5102565;28;20068;-83
2024/01/09 06:58:45;;;;;;;8.70;3.47;;;-3.60;99.90;;;;;;5114340;27;20066;-83
2024/01/09 07:01:11;;;;;;;7.95;3.50;;;-3.70;99.90;;;;;;5092068;27;20545;-83
2024/01/09 07:03:36;;;;;;;7.57;3.10;;;-3.80;99.90;;;;;;5076406;28;20042;-83
2024/01/09 07:06:02;;;;;;;7.72;3.08;;;-3.80;99.90;;;;;;5074345;28;20518;-83
2024/01/09 07:08:28;;;;;;;7.90;3.40;;;-3.70;99.90;;;;;;5070119;28;20031;-83
2024/01/09 07:10:54;;;;;;;7.38;3.35;;;-3.70;99.90;;;;;;5089621;27;20435;-83
2024/01/09 07:13:19;;;;;;;7.05;3.10;;;-3.70;99.90;;;;;;5094160;27;20044;-83
2024/01/09 07:15:45;;;;;;;8.88;3.35;;;-3.70;99.90;;;;;;5108141;27;20401;-83
2024/01/09 07:18:11;;;;;;;6.45;2.22;;;-3.90;99.90;;;;;;5111246;27;21899;-83
2024/01/09 07:20:37;;;;;;;5.95;2.65;;;-3.80;99.90;;;;;;5102009;27;20044;-83
2024/01/09 07:23:03;;;;;;;9.15;3.60;;;-3.80;99.90;;;;;;5122859;27;20058;-83
2024/01/09 07:25:28;;;;;;;8.20;3.03;;;-3.90;99.90;;;;;;5083329;28;20031;-83
2024/01/09 07:27:54;;;;;;;7.90;3.00;;;-3.90;99.90;;;;;;5104858;28;20411;-83
2024/01/09 07:30:20;;;;;;;8.45;3.10;;;-3.90;99.90;;;;;;5109468;28;21408;-84
2024/01/09 07:32:45;;;;;;;5.68;2.70;;;-3.80;99.90;;;;;;5106892;27;20050;-83
2024/01/09 07:35:11;;;;;;;7.40;2.47;;;-3.80;99.90;;;;;;5111992;28;20035;-84
2024/01/09 07:37:36;;;;;;;7.72;3.50;;;-3.90;99.90;;;;;;5082973;28;20392;-83
2024/01/09 07:40:04;;;;;;;8.43;2.65;;;-3.80;99.90;;;;;;5087852;28;20654;-83
2024/01/09 07:42:30;;;;;;;8.75;3.40;;;-3.80;99.90;;;;;;5121217;27;20388;-83
2024/01/09 07:44:56;;;;;;;8.82;3.08;;;-3.90;99.90;;;;;;5120388;27;20044;-83
2024/01/09 07:47:22;;;;;;;6.95;3.58;;;-3.90;99.90;;;;;;5134332;27;20032;-84
2024/01/09 07:49:47;;;;;;;8.73;3.17;;;-3.90;99.90;;;;;;5070616;28;20067;-84
2024/01/09 07:52:13;;;;;;;8.52;3.08;;;-4.00;99.90;;;;;;5088706;28;20096;-83
2024/01/09 07:54:41;;;;;;;7.20;3.33;;;-4.00;99.90;;;;;;5108783;28;20158;-83
2024/01/09 07:57:07;;;;;;;8.00;3.00;;;-3.90;99.90;;;;;;5114681;28;20100;-83
2024/01/09 07:59:33;;;;;;;6.70;3.20;;;-3.90;99.90;;;;;;5078355;28;20174;-83
2024/01/09 08:02:01;;;;;;;8.80;3.05;;;-3.90;99.90;;;;;;5120830;27;20066;-83
2024/01/09 08:04:27;;;;;;;7.60;3.28;;;-3.90;99.90;;;;;;5106641;28;20040;-83
2024/01/09 08:06:53;;;;;;;7.78;3.13;;;-3.90;99.90;;;;;;5091286;28;20036;-84
2024/01/09 08:09:19;;;;;;;7.78;3.00;;;-4.00;99.90;;;;;;5074877;28;20045;-84
2024/01/09 08:11:45;;;;;;;6.53;3.05;;;-4.10;99.90;;;;;;5088832;28;20111;-84
2024/01/09 08:14:14;;;;;;;7.00;3.00;;;-3.90;99.90;;;;;;5103373;28;20077;-84
2024/01/09 08:16:40;;;;;;;5.15;2.05;;;-3.90;99.90;;;;;;5089121;28;20043;-84
2024/01/09 08:19:09;;;;;;;7.20;2.97;;;-4.00;99.90;;;;;;5109239;27;20049;-83
2024/01/09 08:21:35;;;;;;;10.48;3.72;;;-3.90;99.90;;;;;;5103907;27;20040;-84
2024/01/09 08:24:02;;;;;;;8.65;2.95;;;-4.10;99.90;;;;;;5107504;27;20182;-84
2024/01/09 08:26:28;;;;;;;8.95;3.15;;;-4.00;99.90;;;;;;5108639;27;20040;-82
2024/01/09 08:28:54;;;;;;;4.30;1.63;;;-3.90;99.90;;;;;;5130313;27;20194;-83
2024/01/09 08:31:20;;;;;;;7.30;2.65;;;-3.90;99.90;;;;;;5119161;27;20051;-84
2024/01/09 08:33:45;;;;;;;6.30;2.70;;;-3.80;99.90;;;;;;5105948;27;20072;-84
2024/01/09 08:36:11;;;;;;;6.40;2.63;;;-3.80;99.90;;;;;;5102550;27;20047;-82
2024/01/09 08:38:37;;;;;;;7.43;2.92;;;-3.80;99.90;;;;;;5124813;27;20491;-84
2024/01/09 08:41:04;;;;;;;5.28;2.28;;;-3.70;99.90;;;;;;5091185;28;20112;-83
2024/01/09 08:43:30;;;;;;;6.57;2.70;;;-3.60;99.90;;;;;;5107295;27;20035;-83
2024/01/09 08:45:55;;;;;;;6.80;2.97;;;-3.70;99.90;;;;;;5081692;28;20483;-84
2024/01/09 08:48:21;;;;;;;7.60;3.13;;;-3.70;99.90;;;;;;5101532;27;20044;-84
2024/01/09 08:50:48;;;;;;;5.05;2.30;;;-3.70;99.90;;;;;;5129809;27;20031;-84
2024/01/09 08:53:13;;;;;;;9.20;3.40;;;-3.80;99.90;;;;;;5091400;28;20048;-84
2024/01/09 08:55:39;;;;;;;7.43;2.78;;;-3.80;99.90;;;;;;5094306;28;20081;-84
2024/01/09 08:58:05;;;;;;;8.77;3.58;;;-3.70;99.90;;;;;;5095228;28;20100;-84
2024/01/09 09:00:31;;;;;;;7.25;2.60;;;-3.60;99.90;;;;;;5095233;28;20062;-83
2024/01/09 09:02:56;;;;;;;8.65;3.30;;;-3.60;99.90;;;;;;5128591;27;20089;-84
2024/01/09 09:05:22;;;;;;;7.13;2.63;;;-3.50;99.90;;;;;;5112811;28;20081;-84
2024/01/09 09:07:48;;;;;;;8.30;3.38;;;-3.60;99.90;;;;;;5110256;27;20063;-84
2024/01/09 09:10:13;;;;;;;8.23;3.60;;;-3.60;99.90;;;;;;5111842;28;20545;-84
2024/01/09 09:12:39;;;;;;;8.95;3.25;;;-3.50;99.90;;;;;;5094813;28;20039;-83
2024/01/09 09:15:05;;;;;;;9.25;3.67;;;-3.40;99.90;;;;;;5096135;28;20044;-85
2024/01/09 09:17:31;;;;;;;9.02;3.45;;;-3.40;99.90;;;;;;5093005;28;20038;-84
2024/01/09 09:20:00;;;;;;;6.88;2.65;;;-3.40;99.90;;;;;;5095482;28;20031;-84
2024/01/09 09:22:26;;;;;;;7.80;3.15;;;-3.30;99.90;;;;;;5111570;28;20399;-84
2024/01/09 09:24:55;;;;;;;6.75;3.30;;;-3.40;99.90;;;;;;5110186;28;20040;-85
2024/01/09 09:27:21;;;;;;;7.45;2.97;;;-3.40;99.90;;;;;;5091437;28;20039;-84
2024/01/09 09:29:47;;;;;;;7.45;2.97;;;-3.30;99.90;;;;;;5095351;28;20549;-84
2024/01/09 09:32:12;;;;;;;6.47;2.50;;;-3.30;99.90;;;;;;5145029;27;20044;-84
2024/01/09 09:34:40;;;;;;;7.18;3.00;;;-3.30;99.90;;;;;;5094147;28;20035;-84
2024/01/09 09:37:06;;;;;;;6.88;3.13;;;-3.20;99.90;;;;;;5091800;28;20053;-83
2024/01/09 09:39:31;;;;;;;9.68;3.30;;;-3.10;99.90;;;;;;5111203;28;20122;-82
2024/01/09 09:41:57;;;;;;;8.85;2.95;;;-3.10;99.90;;;;;;5110948;28;20050;-84
2024/01/09 09:44:25;;;;;;;7.07;3.13;;;-3.00;99.90;;;;;;5141161;27;20400;-84
2024/01/09 09:46:51;;;;;;;7.43;3.50;;;-3.00;99.90;;;;;;5128576;27;20040;-84
2024/01/09 09:49:22;;;;;;;8.73;3.40;;;-3.00;99.90;;;;;;5094773;28;20093;-84
2024/01/09 09:51:49;;;;;;;6.37;2.40;;;-2.90;99.90;;;;;;5108484;27;20079;-85
2024/01/09 09:54:15;;;;;;;7.55;3.28;;;-2.80;99.90;;;;;;5111336;28;20035;-84
2024/01/09 09:56:41;;;;;;;8.38;3.20;;;-2.80;99.90;;;;;;5091333;28;20032;-85
2024/01/09 09:59:09;;;;;;;6.95;2.17;;;-2.80;99.90;;;;;;5092317;28;20396;-84
2024/01/09 10:01:36;;;;;;;7.70;3.45;;;-2.50;99.90;;;;;;5122829;27;20066;-85
2024/01/09 10:04:06;;;;;;;7.35;3.30;;;-2.50;99.90;;;;;;5095025;28;20034;-84
2024/01/09 10:06:33;;;;;;;9.88;3.58;;;-2.40;99.90;;;;;;5126773;27;20031;-83
2024/01/09 10:09:03;;;;;;;6.60;2.97;;;-2.40;99.90;;;;;;5145011;27;20047;-84
2024/01/09 10:11:31;;;;;;;5.90;2.28;;;-2.30;99.90;;;;;;5144059;27;20054;-84
2024/01/09 10:13:57;;;;;;;5.15;2.13;;;-2.20;99.90;;;;;;5092931;28;20035;-84
2024/01/09 10:16:24;;;;;;;7.78;3.00;;;-2.00;99.90;;;;;;5141538;27;20053;-84
2024/01/09 10:18:54;;;;;;;7.20;2.58;;;-2.00;99.90;;;;;;5092010;28;20035;-84
2024/01/09 10:21:19;;;;;;;7.90;3.70;;;-2.00;99.90;;;;;;5089637;28;21416;-83
2024/01/09 10:23:45;;;;;;;7.13;2.90;;;-1.90;99.90;;;;;;5124906;27;20484;-84
2024/01/09 10:26:11;;;;;;;7.47;3.15;;;-1.80;99.90;;;;;;5110532;28;20043;-84
2024/01/09 10:28:37;;;;;;;7.95;3.38;;;-1.70;99.90;;;;;;5108314;28;20039;-84
2024/01/09 10:31:06;;;;;;;5.57;2.28;;;-1.80;99.90;;;;;;5090198;28;20036;-84
2024/01/09 10:33:32;;;;;;;9.10;2.92;;;-1.60;99.90;;;;;;5086249;28;20028;-83
2024/01/09 10:35:58;;;;;;;6.38;2.60;;;-1.40;99.90;;;;;;5091449;28;20077;-82
2024/01/09 10:38:25;;;;;;;7.55;3.50;;;-1.40;99.90;;;;;;5139214;27;20035;-85
2024/01/09 10:40:55;;;;;;;5.90;2.70;;;-1.40;99.90;;;;;;5127441;27;20507;-84
2024/01/09 10:43:26;;;;;;;9.55;3.33;;;-1.30;99.90;;;;;;5124748;27;20123;-84
2024/01/09 10:45:52;;;;;;;7.63;3.13;;;-1.20;99.90;;;;;;5125449;27;20445;-84
2024/01/09 10:48:22;;;;;;;8.70;3.72;;;-1.20;99.90;;;;;;5093520;28;20036;-84
2024/01/09 10:50:51;;;;;;;7.90;2.95;;;-1.20;99.90;;;;;;5119787;27;20039;-84
2024/01/09 10:53:23;;;;;;;7.82;3.70;;;-1.10;99.90;;;;;;5138384;27;20040;-84
2024/01/09 10:55:49;;;;;;;9.85;4.03;;;-1.00;99.90;;;;;;5107952;28;20084;-83
2024/01/09 10:58:17;;;;;;;10.38;3.95;;;-1.00;99.90;;;;;;5126526;27;20023;-84
2024/01/09 11:00:43;;;;;;;8.93;3.53;;;-0.90;99.90;;;;;;5093717;28;20452;-83
2024/01/09 11:03:10;;;;;;;8.18;3.30;;;-0.80;99.90;;;;;;5130663;27;20044;-84
2024/01/09 11:05:37;;;;;;;8.30;3.10;;;-0.80;99.90;;;;;;5121114;27;20039;-83
2024/01/09 11:08:07;;;;;;;4.47;1.70;;;-0.70;99.90;;;;;;5099025;28;20110;-84
2024/01/09 11:10:32;;;;;;;7.10;3.30;;;-0.70;99.90;;;;;;5106676;28;20484;-83
2024/01/09 11:13:00;;;;;;;6.13;2.53;;;-0.70;99.90;;;;;;5142857;27;20047;-84
2024/01/09 11:15:31;;;;;;;8.13;3.20;;;-0.70;99.90;;;;;;5109536;28;20039;-83
2024/01/09 11:18:14;;;;;;;7.32;3.42;;;-0.60;99.90;;;;;;5127439;27;20043;-84
2024/01/09 11:20:40;;;;;;;7.80;3.38;;;-0.60;99.90;;;;;;5139356;27;20436;-83
2024/01/09 11:23:05;;;;;;;7.85;3.25;;;-0.80;99.90;;;;;;5144980;27;20078;-84
2024/01/09 11:25:33;;;;;;;6.80;3.22;;;-0.70;99.90;;;;;;5142592;27;20085;-84
2024/01/09 11:28:00;;;;;;;8.00;3.25;;;-0.80;99.90;;;;;;5093985;28;20499;-83
2024/01/09 11:30:27;;;;;;;7.45;2.78;;;-0.80;99.90;;;;;;5091797;28;20093;-83
2024/01/09 11:32:55;;;;;;;7.22;3.13;;;-0.80;99.90;;;;;;5108124;28;20036;-84
2024/01/09 11:35:21;;;;;;;7.13;2.70;;;-0.80;99.90;;;;;;5141337;27;20035;-84
2024/01/09 11:37:48;;;;;;;7.25;3.08;;;-0.90;99.90;;;;;;5140257;27;20080;-83
2024/01/09 11:40:16;;;;;;;8.65;2.92;;;-0.80;99.90;;;;;;5105650;28;20050;-84
2024/01/09 11:42:49;;;;;;;7.22;2.80;;;-1.00;99.90;;;;;;5091521;28;20493;-84
2024/01/09 11:45:23;;;;;;;8.57;2.75;;;-0.80;99.90;;;;;;5103859;28;20523;-84
2024/01/09 11:47:49;;;;;;;5.60;2.42;;;-0.60;99.90;;;;;;5117973;27;20508;-83
2024/01/09 11:50:16;;;;;;;6.30;2.90;;;-0.80;99.90;;;;;;5105593;28;20118;-83
2024/01/09 11:52:43;;;;;;;8.60;3.10;;;-0.80;99.90;;;;;;5121909;27;20503;-83
2024/01/09 11:55:10;;;;;;;6.82;3.20;;;-0.70;99.90;;;;;;5137364;27;20031;-82
2024/01/09 11:57:38;;;;;;;7.28;3.05;;;-0.80;99.90;;;;;;5104611;28;20492;-83
2024/01/09 12:00:05;;;;;;;7.13;2.75;;;-0.80;99.90;;;;;;5112636;27;20086;-83
2024/01/09 12:02:33;;;;;;;5.13;2.05;;;-0.80;99.90;;;;;;5147944;27;20028;-83
2024/01/09 12:05:00;;;;;;;5.28;2.35;;;-0.70;99.90;;;;;;5113761;28;20061;-83
2024/01/09 12:07:27;;;;;;;8.20;2.20;;;-0.50;99.90;;;;;;5108909;27;20036;-83
2024/01/09 12:09:53;;;;;;;7.35;2.80;;;-0.70;99.90;;;;;;5130783;27;20027;-82
2024/01/09 12:12:24;;;;;;;7.07;2.50;;;-0.70;99.90;;;;;;5130597;27;20085;-83
2024/01/09 12:14:58;;;;;;;6.07;2.60;;;-0.80;99.90;;;;;;5096546;28;20043;-83
2024/01/09 12:17:36;;;;;;;5.70;2.50;;;-0.70;99.90;;;;;;5127173;27;20055;-83
2024/01/09 12:20:03;;;;;;;6.00;2.40;;;-0.70;99.90;;;;;;5095169;28;20503;-83
2024/01/09 12:22:31;;;;;;;6.35;2.78;;;-0.70;99.90;;;;;;5095104;28;20075;-83
2024/01/09 12:24:57;;;;;;;4.45;2.08;;;-0.70;99.90;;;;;;5095900;28;20459;-83
2024/01/09 12:27:24;;;;;;;4.65;1.67;;;-0.70;99.90;;;;;;5111472;28;20064;-83
2024/01/09 12:29:51;;;;;;;5.25;2.20;;;-0.60;99.90;;;;;;5093284;27;20035;-83
2024/01/09 12:32:18;;;;;;;5.97;2.13;;;-0.70;99.90;;;;;;5093171;28;20242;-83
2024/01/09 12:34:45;;;;;;;5.93;2.22;;;-0.70;99.90;;;;;;5112722;28;20036;-83
2024/01/09 12:37:11;;;;;;;6.72;2.83;;;-0.60;99.90;;;;;;5129788;27;20043;-83
2024/01/09 12:39:37;;;;;;;7.47;2.63;;;-0.60;99.90;;;;;;5110934;27;20043;-82